Time;durP1;ratioP1;P1;durP2;ratioP2;P2;SDS_P1;SDS_P2;PMS_P1;PMS_P2;Temp;Humidity;BMP_temperature;BMP_pressure;BME280_temperature;BME280_humidity;BME280_pressure;Samples;Min_cycle;Max_cycle;Signal;HPM_P1;HPM_P2
2021/11/01 00:00:56;;;;;;;6.57;1.80;;;;;;;;;;5105123;23;20036;-55
2021/11/01 00:03:18;;;;;;;3.42;1.60;;;;;;;;;;5108403;23;20051;-58
2021/11/01 00:05:41;;;;;;;4.40;1.90;;;;;;;;;;5102188;23;20047;-57
2021/11/01 00:08:03;;;;;;;5.72;2.15;;;;;;;;;;5110168;23;20017;-57
2021/11/01 00:10:25;;;;;;;1.88;1.30;;;;;;;;;;5102702;23;20068;-55
2021/11/01 00:12:48;;;;;;;6.95;1.58;;;;;;;;;;5108452;23;20045;-54
2021/11/01 00:15:11;;;;;;;3.80;1.75;;;;;;;;;;5108561;23;20456;-56
2021/11/01 00:17:33;;;;;;;5.38;1.95;;;;;;;;;;5108655;23;20382;-55
2021/11/01 00:19:56;;;;;;;6.35;2.35;;;;;;;;;;5108658;23;20028;-55
2021/11/01 00:22:18;;;;;;;2.70;2.05;;;;;;;;;;5108820;23;20028;-56
2021/11/01 00:24:41;;;;;;;4.35;1.42;;;;;;;;;;5107769;23;20093;-56
2021/11/01 00:27:03;;;;;;;4.43;1.70;;;;;;;;;;5107923;23;20016;-57
2021/11/01 00:29:25;;;;;;;3.15;1.90;;;;;;;;;;5079230;23;20092;-55
2021/11/01 00:31:48;;;;;;;3.95;1.55;;;;;;;;;;5106436;23;20471;-58
2021/11/01 00:34:10;;;;;;;2.20;1.60;;;;;;;;;;5108460;23;20024;-57
2021/11/01 00:36:32;;;;;;;4.65;2.00;;;;;;;;;;5109043;23;20035;-58
2021/11/01 00:38:55;;;;;;;3.05;1.42;;;;;;;;;;5108322;23;20020;-58
2021/11/01 00:41:18;;;;;;;2.83;1.75;;;;;;;;;;5107998;23;20104;-58
2021/11/01 00:43:40;;;;;;;4.43;1.70;;;;;;;;;;5111700;23;20329;-57
2021/11/01 00:46:02;;;;;;;3.13;1.55;;;;;;;;;;5109276;23;20016;-57
2021/11/01 00:48:25;;;;;;;3.50;1.40;;;;;;;;;;5109346;23;20009;-52
2021/11/01 00:50:47;;;;;;;3.72;1.63;;;;;;;;;;5108777;23;20025;-54
2021/11/01 00:53:10;;;;;;;3.08;1.58;;;;;;;;;;5108558;23;20097;-55
2021/11/01 00:55:53;;;;;;;3.95;1.75;;;;;;;;;;5108288;23;20690;-54
2021/11/01 00:58:15;;;;;;;5.78;1.52;;;;;;;;;;5102134;23;20669;-58
2021/11/01 01:02:13;;;;;;;3.95;1.55;;;21.60;52.30;;;;;;4183146;27;20441;-58
2021/11/01 01:04:35;;;;;;;8.43;2.20;;;21.60;52.90;;;;;;4205247;28;20058;-54
2021/11/01 01:07:01;;;;;;;3.45;1.42;;;21.60;52.90;;;;;;4202579;28;20054;-50
2021/11/01 01:09:24;;;;;;;7.03;2.08;;;21.60;52.90;;;;;;4207894;28;20158;-58
2021/11/01 01:11:47;;;;;;;3.65;1.15;;;21.60;52.80;;;;;;4215363;28;20162;-56
2021/11/01 01:14:10;;;;;;;4.85;1.40;;;21.60;52.70;;;;;;4218068;28;20028;-54
2021/11/01 01:16:39;;;;;;;4.95;1.75;;;21.60;52.90;;;;;;4212782;28;20040;-55
2021/11/01 01:19:02;;;;;;;8.48;1.75;;;21.70;52.90;;;;;;4213553;28;20027;-54
2021/11/01 01:24:06;;;;;;;4.80;1.65;;;21.70;52.80;;;;;;4212982;28;20264;-53
2021/11/01 01:26:29;;;;;;;9.40;2.08;;;21.70;52.90;;;;;;4218779;28;20504;-54
2021/11/01 01:28:52;;;;;;;5.55;1.45;;;21.70;53.10;;;;;;4208934;28;20032;-50
2021/11/01 01:31:15;;;;;;;3.42;1.27;;;21.80;53.00;;;;;;4215207;28;20662;-53
2021/11/01 01:33:38;;;;;;;2.80;1.13;;;21.80;52.90;;;;;;4210753;28;20139;-50
2021/11/01 01:36:01;;;;;;;6.05;1.77;;;21.80;52.90;;;;;;4216407;28;20061;-54
2021/11/01 01:38:23;;;;;;;4.47;1.40;;;21.80;52.90;;;;;;4217402;28;20047;-54
2021/11/01 01:40:45;;;;;;;3.65;1.58;;;21.90;52.90;;;;;;4211796;28;20502;-51
2021/11/01 01:43:08;;;;;;;3.25;1.23;;;21.90;52.90;;;;;;4211424;28;20044;-55
2021/11/01 01:45:32;;;;;;;1.48;1.17;;;21.90;52.70;;;;;;4212103;28;20036;-50
2021/11/01 01:47:54;;;;;;;2.78;1.35;;;21.90;52.80;;;;;;4212588;28;20111;-48
2021/11/01 01:50:18;;;;;;;4.80;1.10;;;21.90;53.10;;;;;;4213088;28;20626;-48
2021/11/01 01:52:42;;;;;;;4.47;1.42;;;21.90;52.80;;;;;;4214373;28;20062;-55
2021/11/01 01:55:08;;;;;;;2.67;1.40;;;22.00;52.70;;;;;;4210282;28;20114;-58
2021/11/01 01:57:31;;;;;;;5.88;1.15;;;22.00;52.90;;;;;;4214006;28;20042;-58
2021/11/01 01:59:54;;;;;;;2.70;1.38;;;22.00;53.00;;;;;;4211160;28;20092;-58
2021/11/01 02:02:17;;;;;;;3.97;1.20;;;22.00;53.00;;;;;;4216971;28;20067;-58
2021/11/01 02:04:39;;;;;;;3.35;1.52;;;22.00;53.10;;;;;;4194271;28;20036;-58
2021/11/01 02:07:14;;;;;;;2.95;1.50;;;22.10;53.10;;;;;;4213821;28;20674;-58
2021/11/01 02:09:54;;;;;;;;;;;22.10;53.00;;;;;;4214626;28;20090;-58
2021/11/01 02:12:22;;;;;;;4.13;1.58;;;22.10;53.10;;;;;;4198311;28;19917;-56
2021/11/01 02:14:56;;;;;;;3.35;1.67;;;22.10;53.20;;;;;;4204481;28;20381;-55
2021/11/01 02:17:25;;;;;;;4.10;1.30;;;22.20;53.60;;;;;;4199691;28;20639;-56
2021/11/01 02:19:49;;;;;;;3.30;1.20;;;22.20;53.40;;;;;;4203614;28;20232;-56
2021/11/01 02:22:20;;;;;;;4.30;1.30;;;22.20;53.30;;;;;;4199076;28;20436;-55
2021/11/01 02:24:57;;;;;;;3.95;1.35;;;22.20;53.20;;;;;;4199245;28;20125;-50
2021/11/01 02:27:20;;;;;;;4.78;1.67;;;22.20;53.40;;;;;;4194930;28;20116;-56
2021/11/01 02:29:48;;;;;;;5.47;1.27;;;22.30;54.10;;;;;;4205111;28;20040;-59
2021/11/01 02:32:12;;;;;;;4.72;1.40;;;22.30;53.80;;;;;;4198667;28;20081;-60
2021/11/01 02:34:35;;;;;;;9.18;1.98;;;22.40;53.30;;;;;;4202002;28;20122;-61
2021/11/01 02:36:59;;;;;;;5.25;1.40;;;22.40;53.10;;;;;;4184122;28;20104;-61
2021/11/01 02:39:21;;;;;;;6.40;1.55;;;22.40;53.10;;;;;;4195968;28;20636;-60
2021/11/01 02:41:44;;;;;;;8.35;1.55;;;22.50;53.20;;;;;;4195825;28;20102;-60
2021/11/01 02:44:08;;;;;;;5.68;1.85;;;22.50;53.50;;;;;;4201128;28;20079;-59
2021/11/01 02:46:34;;;;;;;3.47;1.42;;;22.50;53.30;;;;;;4203094;28;20043;-59
2021/11/01 02:48:57;;;;;;;4.15;1.20;;;22.60;53.10;;;;;;4198041;28;20032;-59
2021/11/01 02:51:21;;;;;;;7.63;1.25;;;22.60;52.90;;;;;;4204391;28;20293;-60
2021/11/01 02:53:45;;;;;;;1.90;1.05;;;22.60;52.70;;;;;;4186303;28;20040;-59
2021/11/01 02:56:09;;;;;;;4.28;1.33;;;22.60;53.30;;;;;;4208301;28;20051;-59
2021/11/01 02:58:32;;;;;;;7.05;1.42;;;22.70;52.60;;;;;;4194719;28;20028;-60
2021/11/01 03:00:54;;;;;;;6.32;1.67;;;22.60;52.40;;;;;;4197466;28;20047;-59
2021/11/01 03:03:17;;;;;;;1.77;0.90;;;22.70;52.40;;;;;;4180056;28;20053;-55
2021/11/01 03:05:41;;;;;;;3.25;1.35;;;22.70;52.40;;;;;;4206830;28;20028;-59
2021/11/01 03:08:04;;;;;;;5.78;1.40;;;22.70;52.30;;;;;;4197181;28;20587;-57
2021/11/01 03:10:28;;;;;;;5.25;1.27;;;22.80;52.70;;;;;;4206466;28;20052;-59
2021/11/01 03:12:55;;;;;;;2.58;1.30;;;22.80;52.80;;;;;;4180739;28;20048;-59
2021/11/01 03:15:21;;;;;;;7.90;1.45;;;22.80;52.80;;;;;;4201577;28;20043;-55
2021/11/01 03:17:48;;;;;;;4.82;1.73;;;22.80;53.00;;;;;;4200365;28;20032;-59
2021/11/01 03:20:14;;;;;;;2.55;1.23;;;22.80;53.10;;;;;;4199340;28;20081;-58
2021/11/01 03:22:40;;;;;;;3.53;1.30;;;22.80;53.20;;;;;;4197200;28;20128;-61
2021/11/01 03:25:07;;;;;;;2.35;1.40;;;22.90;53.30;;;;;;4201455;28;20747;-61
2021/11/01 03:27:33;;;;;;;6.13;1.50;;;22.90;53.60;;;;;;4203589;28;20742;-65
2021/11/01 03:29:57;;;;;;;4.95;1.52;;;22.90;53.60;;;;;;4201306;28;20032;-61
2021/11/01 03:32:20;;;;;;;5.70;1.55;;;;;;;;;;4201245;28;20395;-62
2021/11/01 03:34:42;;;;;;;4.25;1.45;;;;;;;;;;4200374;28;20039;-61
2021/11/01 03:37:11;;;;;;;3.83;1.38;;;;;;;;;;4204005;28;20162;-61
2021/11/01 03:39:34;;;;;;;2.13;1.10;;;;;;;;;;4196895;28;21012;-62
2021/11/01 03:41:56;;;;;;;3.20;1.40;;;;;;;;;;4192362;28;20051;-63
2021/11/01 03:44:25;;;;;;;2.67;1.00;;;;;;;;;;4178750;28;20123;-61
2021/11/01 03:47:00;;;;;;;2.13;1.27;;;;;;;;;;4193856;28;20075;-63
2021/11/01 03:49:24;;;;;;;4.03;1.30;;;;;;;;;;4199299;28;20898;-62
2021/11/01 03:54:13;;;;;;;3.20;0.95;;;;;;;;;;4195075;28;20715;-60
2021/11/01 03:56:37;;;;;;;5.93;1.60;;;;;;;;;;4202347;28;20040;-63
2021/11/01 03:58:59;;;;;;;1.50;0.88;;;;;;;;;;4195601;28;20032;-61
2021/11/01 04:02:20;;;;;;;6.80;1.63;;;23.30;53.00;;;;;;4188395;27;20457;-60
2021/11/01 04:04:47;;;;;;;3.20;1.55;;;23.30;53.50;;;;;;4173786;28;20099;-64
2021/11/01 04:07:10;;;;;;;3.42;1.42;;;23.30;53.10;;;;;;4169090;28;20120;-61
2021/11/01 04:09:32;;;;;;;6.28;1.48;;;23.40;54.00;;;;;;4174130;28;20725;-60
2021/11/01 04:11:56;;;;;;;7.78;1.77;;;23.40;54.30;;;;;;4188277;28;20039;-61
2021/11/01 04:14:24;;;;;;;8.57;1.55;;;23.40;54.60;;;;;;4226524;27;20474;-62
2021/11/01 04:16:49;;;;;;;9.07;1.55;;;23.50;54.60;;;;;;4218617;27;20038;-62
2021/11/01 04:21:37;;;;;;;5.53;1.65;;;23.50;54.30;;;;;;4222146;27;20127;-61
2021/11/01 04:24:00;;;;;;;9.02;1.50;;;23.60;54.00;;;;;;4216793;27;20136;-59
2021/11/01 04:26:23;;;;;;;5.35;1.55;;;23.60;53.80;;;;;;4215130;27;20088;-59
2021/11/01 04:28:46;;;;;;;7.05;1.63;;;23.60;53.80;;;;;;4230059;27;20058;-59
2021/11/01 04:31:12;;;;;;;4.78;1.40;;;23.60;53.80;;;;;;4212540;27;20047;-59
2021/11/01 04:33:35;;;;;;;5.72;1.23;;;23.70;53.70;;;;;;4224339;27;20031;-62
2021/11/01 04:35:58;;;;;;;4.80;1.20;;;;;;;;;;4220345;27;20032;-62
2021/11/01 04:39:07;;;;;;;4.53;1.27;;;23.70;53.40;;;;;;4207192;27;20123;-60
2021/11/01 04:54:02;;;;;;;4.43;1.70;;;24.10;53.60;;;;;;4211962;27;20071;-61
2021/11/01 04:56:26;;;;;;;3.50;1.45;;;24.20;52.70;;;;;;4222270;27;20110;-58
2021/11/01 04:58:48;;;;;;;8.20;1.52;;;24.20;52.90;;;;;;4224425;27;20058;-60
2021/11/01 05:01:11;;;;;;;2.88;1.00;;;24.30;53.10;;;;;;4219223;27;20051;-59
2021/11/01 05:03:38;;;;;;;5.68;1.20;;;24.30;53.10;;;;;;4208275;27;20039;-60
2021/11/01 05:06:00;;;;;;;3.22;1.10;;;24.40;53.00;;;;;;4223137;27;20082;-60
2021/11/01 05:08:27;;;;;;;3.40;1.08;;;24.40;52.90;;;;;;4214081;27;20269;-60
2021/11/01 05:10:54;;;;;;;4.85;1.35;;;24.50;53.00;;;;;;4219979;27;20047;-60
2021/11/01 05:13:23;;;;;;;3.72;1.20;;;24.60;53.00;;;;;;4218122;27;20036;-60
2021/11/01 05:23:38;;;;;;;6.30;1.58;;;24.80;52.70;;;;;;4198382;27;20043;-62
2021/11/01 05:26:05;;;;;;;3.03;1.20;;;24.80;52.70;;;;;;4217680;28;20568;-60
2021/11/01 05:28:52;;;;;;;4.05;1.05;;;24.80;52.70;;;;;;4212582;27;20030;-61
2021/11/01 05:31:24;;;;;;;3.95;1.42;;;24.80;52.80;;;;;;4212702;28;20040;-62
2021/11/01 05:36:09;;;;;;;2.70;1.42;;;24.90;52.80;;;;;;4209010;28;20123;-62
2021/11/01 05:38:34;;;;;;;2.45;0.93;;;24.90;52.60;;;;;;4212934;27;20035;-63
2021/11/01 05:40:56;;;;;;;4.78;1.27;;;24.90;52.60;;;;;;4208880;27;20051;-64
2021/11/01 05:43:21;;;;;;;9.05;1.40;;;25.00;52.60;;;;;;4195808;28;20033;-64
2021/11/01 05:45:44;;;;;;;4.00;1.40;;;25.00;52.70;;;;;;4209501;28;20051;-64
2021/11/01 05:48:06;;;;;;;3.65;1.15;;;25.00;52.60;;;;;;4211230;28;20448;-64
2021/11/01 05:50:32;;;;;;;3.25;1.20;;;25.00;52.60;;;;;;4208326;28;20039;-63
2021/11/01 05:52:59;;;;;;;0.93;0.68;;;25.00;52.70;;;;;;4215762;28;20040;-62
2021/11/01 05:58:22;;;;;;;3.15;1.17;;;25.10;52.70;;;;;;4211876;28;20050;-63
2021/11/01 06:03:42;;;;;;;2.15;0.80;;;25.10;52.90;;;;;;4220975;28;20047;-63
2021/11/01 06:08:43;;;;;;;2.45;1.10;;;25.10;52.90;;;;;;4216025;27;20069;-63
2021/11/01 06:13:47;;;;;;;1.15;0.80;;;25.10;52.80;;;;;;4208997;28;20044;-63
2021/11/01 06:16:10;;;;;;;5.50;1.35;;;25.10;52.80;;;;;;4205424;27;20028;-64
2021/11/01 06:18:35;;;;;;;2.88;0.98;;;25.20;52.80;;;;;;4220644;27;20039;-61
2021/11/01 06:20:58;;;;;;;2.22;0.90;;;25.20;52.80;;;;;;4208339;28;20048;-64
2021/11/01 06:23:21;;;;;;;1.27;0.82;;;25.20;52.90;;;;;;4208256;27;20653;-62
2021/11/01 06:25:45;;;;;;;3.08;1.10;;;25.20;52.90;;;;;;4213531;27;20035;-64
2021/11/01 06:28:12;;;;;;;1.63;0.80;;;25.10;52.70;;;;;;4212037;27;20043;-62
2021/11/01 06:30:45;;;;;;;2.20;1.20;;;25.20;52.90;;;;;;4208530;27;20040;-63
2021/11/01 06:44:24;;;;;;;32.42;28.77;;;25.20;52.90;;;;;;4205516;28;20039;-61
2021/11/01 07:15:39;;;;;;;162.18;139.90;;;25.00;51.60;;;;;;4172382;28;20029;-61
2021/11/01 07:20:39;;;;;;;152.15;125.85;;;25.00;51.90;;;;;;4173563;28;20049;-60
2021/11/01 08:34:59;;;;;;;35.05;30.60;;;24.90;53.20;;;;;;4160004;28;20674;-61
2021/11/01 09:02:02;;;;;;;21.98;18.63;;;25.00;53.40;;;;;;4159951;28;20068;-65
2021/11/01 09:03:55;;;;;;;21.80;18.08;;;24.90;53.40;;;;;;4151541;28;20528;-62
2021/11/01 09:27:06;;;;;;;16.15;12.73;;;24.90;53.40;;;;;;4155726;28;20112;-63
2021/11/01 09:42:25;;;;;;;14.75;11.90;;;24.90;53.50;;;;;;4153962;28;20055;-63
2021/11/01 09:44:50;;;;;;;11.85;10.50;;;24.90;53.50;;;;;;4157987;28;20097;-61
2021/11/01 09:47:14;;;;;;;11.85;10.35;;;24.90;53.50;;;;;;4158358;28;21350;-62
2021/11/01 09:49:37;;;;;;;12.13;10.60;;;24.90;53.50;;;;;;4161833;28;20033;-64
2021/11/01 09:52:05;;;;;;;10.85;9.32;;;24.90;53.50;;;;;;4160086;28;20041;-63
2021/11/01 09:54:31;;;;;;;16.55;9.82;;;24.90;53.50;;;;;;4160886;28;20041;-63
2021/11/01 09:56:59;;;;;;;12.27;9.32;;;24.90;53.70;;;;;;4160811;28;20583;-67
2021/11/01 09:59:21;;;;;;;10.93;8.35;;;24.90;53.60;;;;;;4159495;28;20036;-63
2021/11/01 10:02:17;;;;;;;12.43;8.93;;;24.90;53.00;;;;;;4114395;27;20445;-61
2021/11/01 10:04:43;;;;;;;11.20;8.45;;;24.80;53.70;;;;;;4112505;28;20035;-59
2021/11/01 10:07:54;;;;;;;13.32;8.32;;;24.80;53.70;;;;;;4122573;28;20049;-60
2021/11/01 10:10:05;;;;;;;10.98;8.25;;;24.80;53.80;;;;;;4107104;28;20047;-63
2021/11/01 10:12:34;;;;;;;10.50;7.72;;;24.80;53.90;;;;;;4110283;28;20043;-61
2021/11/01 10:18:18;;;;;;;10.63;8.02;;;24.90;53.90;;;;;;4107560;28;20236;-62
2021/11/01 10:20:52;;;;;;;8.75;7.53;;;24.80;53.90;;;;;;4104234;28;20046;-64
2021/11/01 10:23:19;;;;;;;10.30;8.07;;;24.90;54.10;;;;;;4110044;28;20061;-62
2021/11/01 10:25:42;;;;;;;9.43;7.28;;;24.80;54.00;;;;;;4103590;28;20052;-60
2021/11/01 10:28:05;;;;;;;8.73;7.15;;;24.90;54.10;;;;;;4106249;28;20092;-61
2021/11/01 10:30:30;;;;;;;8.82;6.88;;;24.80;54.10;;;;;;4104127;28;20056;-61
2021/11/01 10:32:53;;;;;;;10.07;6.88;;;24.80;54.60;;;;;;4111062;28;20035;-61
2021/11/01 10:35:29;;;;;;;11.30;6.93;;;24.80;54.00;;;;;;4111628;28;20115;-61
2021/11/01 10:38:25;;;;;;;9.80;6.78;;;24.80;53.90;;;;;;4112432;28;20035;-61
2021/11/01 10:41:11;;;;;;;8.15;6.30;;;24.90;54.00;;;;;;4115207;28;20051;-61
2021/11/01 10:43:46;;;;;;;6.97;5.88;;;24.80;54.30;;;;;;4114896;28;20642;-62
2021/11/01 11:11:29;;;;;;;11.90;8.65;;;24.80;53.70;;;;;;4105688;28;20397;-62
2021/11/01 11:14:02;;;;;;;11.45;7.70;;;24.80;53.80;;;;;;4095723;28;20047;-62
2021/11/01 11:26:55;;;;;;;7.78;5.70;;;24.80;54.20;;;;;;4095882;28;20043;-62
2021/11/01 11:32:24;;;;;;;7.55;5.30;;;24.80;54.10;;;;;;4097719;28;20047;-63
2021/11/01 11:38:07;;;;;;;8.80;4.68;;;24.80;54.10;;;;;;4095178;28;20050;-58
2021/11/01 11:43:41;;;;;;;4.95;4.30;;;24.70;54.20;;;;;;4107522;28;20074;-62
2021/11/01 11:48:46;;;;;;;5.95;4.53;;;24.70;54.20;;;;;;4098351;28;20046;-64
2021/11/01 11:51:10;;;;;;;5.97;4.38;;;24.80;54.20;;;;;;4094304;28;20073;-62
2021/11/01 11:53:33;;;;;;;;;;;24.80;54.20;;;;;;4097172;28;20121;-63
2021/11/01 11:56:09;;;;;;;5.93;3.92;;;24.70;54.20;;;;;;4093110;28;20522;-63
2021/11/01 11:58:39;;;;;;;5.25;3.65;;;24.70;54.20;;;;;;4094971;28;20047;-66
2021/11/01 12:01:02;;;;;;;5.00;3.72;;;24.70;54.30;;;;;;4092199;28;20093;-61
2021/11/01 12:03:24;;;;;;;5.78;3.88;;;24.70;54.20;;;;;;4093976;28;20505;-59
2021/11/01 12:05:54;;;;;;;4.43;3.90;;;24.70;54.30;;;;;;4094582;28;20425;-63
2021/11/01 12:18:58;;;;;;;4.63;3.05;;;24.70;54.40;;;;;;4094384;28;20081;-64
2021/11/01 12:21:22;;;;;;;4.43;3.28;;;24.70;54.40;;;;;;4093231;28;20051;-62
2021/11/01 12:23:45;;;;;;;4.13;2.88;;;24.70;54.40;;;;;;4093738;28;20037;-63
2021/11/01 12:26:16;;;;;;;3.75;3.00;;;24.70;53.80;;;;;;4095520;28;20031;-61
2021/11/01 12:28:42;;;;;;;3.47;2.85;;;24.70;54.50;;;;;;4096955;28;20053;-61
2021/11/01 12:31:05;;;;;;;4.72;3.22;;;24.70;54.50;;;;;;4094490;28;20588;-60
2021/11/01 12:33:30;;;;;;;4.30;3.10;;;24.70;54.50;;;;;;4095824;28;20055;-60
2021/11/01 12:35:58;;;;;;;4.88;3.05;;;24.70;54.50;;;;;;4095863;28;20046;-67
2021/11/01 12:39:10;;;;;;;5.15;3.45;;;24.70;54.70;;;;;;4096168;28;20069;-57
2021/11/01 12:42:10;;;;;;;5.82;2.92;;;24.60;54.60;;;;;;4090908;28;20055;-60
2021/11/01 12:45:18;;;;;;;5.10;3.10;;;24.60;54.50;;;;;;4097219;28;20732;-59
2021/11/01 12:47:35;;;;;;;3.75;3.05;;;24.70;54.70;;;;;;4094525;28;20616;-61
2021/11/01 12:57:45;;;;;;;3.90;2.95;;;24.60;54.50;;;;;;4091186;28;20681;-59
2021/11/01 13:02:35;;;;;;;4.00;2.78;;;24.60;53.90;;;;;;4205475;27;20428;-63
2021/11/01 13:05:00;;;;;;;5.82;2.67;;;24.60;54.60;;;;;;4192164;28;20117;-65
2021/11/01 13:10:49;;;;;;;4.22;2.85;;;24.60;54.60;;;;;;4189217;28;20041;-62
2021/11/01 13:13:13;;;;;;;4.45;2.83;;;24.60;54.70;;;;;;4189367;28;20109;-63
2021/11/01 13:18:09;;;;;;;6.43;3.17;;;24.60;54.60;;;;;;4191778;28;20050;-60
2021/11/01 13:20:31;;;;;;;6.78;3.58;;;24.60;54.70;;;;;;4188279;28;20444;-58
2021/11/01 13:22:59;;;;;;;5.13;2.60;;;24.60;55.00;;;;;;4184753;28;20052;-63
2021/11/01 13:25:28;;;;;;;5.65;3.80;;;24.50;54.60;;;;;;4184348;28;20037;-61
2021/11/01 13:35:44;;;;;;;4.72;3.38;;;24.50;54.70;;;;;;4191789;28;20044;-59
2021/11/01 13:38:08;;;;;;;6.22;3.67;;;24.50;54.70;;;;;;4191627;28;20089;-60
2021/11/01 13:40:37;;;;;;;4.63;3.30;;;24.50;54.80;;;;;;4184752;28;20064;-60
2021/11/01 13:43:00;;;;;;;4.80;3.20;;;24.50;55.40;;;;;;4186549;28;20048;-60
2021/11/01 13:45:24;;;;;;;5.30;2.95;;;24.50;54.80;;;;;;4190636;28;20028;-58
2021/11/01 13:47:52;;;;;;;4.85;2.75;;;24.50;54.90;;;;;;4185442;28;20780;-61
2021/11/01 13:50:17;;;;;;;4.07;2.65;;;24.40;54.90;;;;;;4188345;28;20808;-59
2021/11/01 13:52:45;;;;;;;4.85;2.72;;;24.40;54.90;;;;;;4191586;28;20087;-60
2021/11/01 13:55:18;;;;;;;4.50;2.40;;;24.40;54.90;;;;;;4189567;28;20098;-58
2021/11/01 13:57:56;;;;;;;8.10;2.97;;;24.40;55.00;;;;;;4188008;28;20028;-56
2021/11/01 14:13:42;;;;;;;10.70;2.90;;;24.40;54.50;;;;;;4177741;28;20092;-53
2021/11/01 14:16:30;;;;;;;6.25;2.50;;;24.40;54.60;;;;;;4178071;28;20684;-59
2021/11/01 14:29:21;;;;;;;8.57;3.08;;;24.30;55.10;;;;;;4177527;28;20111;-58
2021/11/01 14:36:52;;;;;;;5.45;2.75;;;24.30;55.20;;;;;;4183632;28;20040;-55
2021/11/01 15:01:16;;;;;;;9.48;2.85;;;24.20;55.60;;;;;;4194973;28;20466;-59
2021/11/01 15:16:52;;;;;;;6.22;2.60;;;24.10;55.40;;;;;;4193897;28;20040;-58
2021/11/01 15:22:54;;;;;;;4.10;2.67;;;24.10;55.20;;;;;;4175891;28;20082;-60
2021/11/01 15:24:59;;;;;;;7.60;2.53;;;24.10;55.20;;;;;;4187576;28;20036;-61
2021/11/01 15:32:49;;;;;;;3.45;2.50;;;24.00;55.20;;;;;;4192388;28;20044;-58
2021/11/01 16:16:17;;;;;;;3.13;1.42;;;23.80;54.70;;;;;;4187443;28;20040;-58
2021/11/01 16:18:42;;;;;;;4.93;1.98;;;23.80;54.70;;;;;;4191093;28;20054;-57
2021/11/01 16:21:05;;;;;;;2.72;1.80;;;23.80;54.80;;;;;;4191323;28;20039;-53
2021/11/01 16:23:37;;;;;;;5.25;2.05;;;23.70;55.00;;;;;;4190007;28;20040;-63
2021/11/01 16:26:04;;;;;;;4.35;1.90;;;23.70;55.50;;;;;;4191933;28;20094;-57
2021/11/01 16:28:33;;;;;;;6.25;1.92;;;23.70;54.80;;;;;;4191685;28;20036;-57
2021/11/01 16:33:33;;;;;;;4.40;1.65;;;23.60;54.70;;;;;;4197279;28;20655;-57
2021/11/01 16:35:58;;;;;;;4.10;1.77;;;23.60;54.60;;;;;;4190942;28;20059;-56
2021/11/01 16:38:25;;;;;;;4.82;1.70;;;23.60;54.60;;;;;;4198197;28;20067;-57
2021/11/01 16:40:50;;;;;;;2.95;1.60;;;23.60;55.40;;;;;;4191263;28;20097;-54
2021/11/01 16:43:18;;;;;;;3.03;1.70;;;23.60;55.00;;;;;;4195803;28;20181;-58
2021/11/01 16:45:44;;;;;;;3.97;1.70;;;23.60;54.60;;;;;;4190669;28;20136;-56
2021/11/01 16:48:08;;;;;;;4.00;1.80;;;23.50;54.60;;;;;;4195185;28;20046;-58
2021/11/01 16:50:30;;;;;;;4.95;1.67;;;23.50;54.60;;;;;;4193379;28;20039;-58
2021/11/01 16:52:54;;;;;;;3.83;1.88;;;23.50;54.60;;;;;;4179023;28;20119;-58
2021/11/01 16:55:20;;;;;;;2.95;1.63;;;23.50;54.60;;;;;;4189798;28;20028;-58
2021/11/01 16:57:48;;;;;;;2.95;1.33;;;23.40;54.50;;;;;;4187047;28;20977;-56
2021/11/01 17:24:04;;;;;;;2.45;1.45;;;23.30;54.80;;;;;;4184761;28;20036;-53
2021/11/01 18:39:17;;;;;;;3.75;1.50;;;22.70;55.20;;;;;;4181704;28;20036;-60
2021/11/01 18:41:45;;;;;;;2.90;1.45;;;22.80;55.30;;;;;;4183473;28;20135;-60
2021/11/01 18:52:09;;;;;;;4.95;1.67;;;22.70;55.30;;;;;;4178604;28;20044;-62
2021/11/01 18:54:53;;;;;;;3.30;1.30;;;22.60;55.30;;;;;;4182620;28;20044;-59
2021/11/01 18:57:16;;;;;;;2.97;1.33;;;22.60;55.40;;;;;;4179650;28;20058;-60
2021/11/01 18:59:41;;;;;;;2.10;1.30;;;22.60;55.40;;;;;;4174379;28;20040;-59
2021/11/01 19:02:37;;;;;;;2.78;1.40;;;22.60;54.90;;;;;;4180233;27;20419;-60
2021/11/01 19:05:08;;;;;;;3.45;1.42;;;22.60;55.50;;;;;;4181613;28;20094;-58
2021/11/01 19:07:51;;;;;;;5.38;1.48;;;22.60;55.70;;;;;;4196868;28;20139;-58
2021/11/01 20:05:04;;;;;;;3.55;1.60;;;22.40;56.80;;;;;;4210154;28;20111;-60
2021/11/01 20:12:56;;;;;;;2.88;1.33;;;22.30;56.10;;;;;;4201496;28;20079;-59
2021/11/01 20:15:53;;;;;;;2.72;1.40;;;22.30;56.20;;;;;;4184068;28;20044;-59
2021/11/01 21:26:25;;;;;;;4.65;1.60;;;;;;;;;;4194880;28;20039;-57
2021/11/01 21:28:51;;;;;;;4.40;1.73;;;;;;;;;;4195830;28;20202;-63
2021/11/01 21:31:14;;;;;;;3.30;1.75;;;;;;;;;;4197167;28;20637;-65
2021/11/01 21:33:36;;;;;;;3.45;1.50;;;;;;;;;;4198494;28;20044;-65
2021/11/01 21:36:06;;;;;;;4.07;1.60;;;;;;;;;;4196251;28;20040;-68
2021/11/01 21:38:28;;;;;;;3.08;1.48;;;;;;;;;;4196411;28;20048;-66
2021/11/01 21:40:51;;;;;;;2.92;1.80;;;;;;;;;;4176938;28;20546;-61
2021/11/01 21:43:14;;;;;;;5.15;1.92;;;;;;;;;;4194962;28;20040;-60
2021/11/01 21:45:37;;;;;;;4.95;1.77;;;;;;;;;;4194351;28;20702;-60
2021/11/01 21:47:59;;;;;;;3.70;1.58;;;;;;;;;;4196578;28;20036;-60
2021/11/01 21:50:21;;;;;;;11.45;1.92;;;;;;;;;;4196836;28;20559;-61
2021/11/01 21:52:44;;;;;;;6.55;2.03;;;;;;;;;;4192459;28;20039;-61
2021/11/01 21:55:07;;;;;;;4.23;1.90;;;;;;;;;;4193107;28;20453;-57
2021/11/01 21:57:39;;;;;;;1.92;1.45;;;;;;;;;;4194950;28;20375;-57
2021/11/01 22:21:01;;;;;;;15.18;2.28;;;;;;;;;;4179436;28;20096;-55
2021/11/01 22:26:03;;;;;;;4.07;1.30;;;;;;;;;;4202988;28;20827;-57
2021/11/01 22:33:59;;;;;;;2.28;1.02;;;;;;;;;;4200881;28;20101;-56
2021/11/01 22:44:40;;;;;;;3.15;1.08;;;;;;;;;;4202991;28;20040;-59
2021/11/01 22:57:46;;;;;;;4.55;1.10;;;;;;;;;;4201434;28;20555;-60
2021/11/01 23:00:20;;;;;;;4.10;1.35;;;;;;;;;;4199284;28;20044;-58
2021/11/01 23:02:42;;;;;;;3.13;1.00;;;;;;;;;;4199039;28;20052;-56
2021/11/01 23:31:55;;;;;;;4.25;1.23;;;23.30;55.00;;;;;;4194939;28;20028;-59
2021/11/01 23:34:18;;;;;;;2.30;1.00;;;23.30;55.80;;;;;;4175235;28;20414;-60
2021/11/01 23:36:41;;;;;;;8.10;1.30;;;23.30;55.00;;;;;;4190436;28;20040;-64
2021/11/01 23:39:08;;;;;;;4.03;1.00;;;23.30;54.80;;;;;;4192201;28;20289;-62
2021/11/01 23:41:30;;;;;;;3.95;0.90;;;23.30;54.60;;;;;;4187776;28;20073;-62
2021/11/01 23:43:53;;;;;;;2.92;1.00;;;23.30;54.50;;;;;;4193462;28;20036;-62
2021/11/01 23:46:17;;;;;;;6.90;1.63;;;23.30;54.60;;;;;;4189215;28;20040;-63
2021/11/01 23:48:39;;;;;;;;;;;23.30;54.50;;;;;;4190412;28;20459;-61
2021/11/01 23:51:01;;;;;;;3.78;1.58;;;23.30;54.00;;;;;;4193108;28;19913;-61
2021/11/01 23:56:24;;;;;;;4.72;1.30;;;23.40;53.90;;;;;;4149502;28;20033;-62
2021/11/01 23:58:47;;;;;;;3.85;1.30;;;23.40;54.00;;;;;;4153892;28;20037;-59
